This is the latest recevied weather packets stored in our database for station/object AB8KN-2. If no packets are shown the sender has not sent any weather packets the latest 10 day(s).
| Time | Temp. | Humidity | Pressure | Rain* | Wind** | Luminosity | Snow |
|---|---|---|---|---|---|---|---|
| 1777496418 | 15.56° C | 80% | 1009.7 hPa | 0 mm | - | 546 W/m² | - |
| 1777488017 | 13.33° C | 95% | 1008.9 hPa | 0 mm | - | 121 W/m² | - |
| 1777485018 | 13.89° C | 96% | 1008.8 hPa | 1.52 mm | - | 120 W/m² | - |
| 1777483816 | 13.33° C | 97% | 1009 hPa | 2.29 mm | - | 337 W/m² | - |
| 1777483216 | 13.33° C | 97% | 1008.9 hPa | 2.29 mm | - | 112 W/m² | - |
| 1777481416 | 13.33° C | 97% | 1009.1 hPa | 3.05 mm | - | 153 W/m² | - |
| 1777480237 | 13.33° C | 97% | 1009.2 hPa | 5.08 mm | - | 95 W/m² | - |
| 1777479617 | 13.33° C | 97% | 1009 hPa | 5.84 mm | - | 138 W/m² | - |
| 1777478417 | 13.33° C | 97% | 1009.3 hPa | 5.33 mm | - | 81 W/m² | - |
| 1777466418 | 12.22° C | 97% | 1010.3 hPa | 0 mm | - | 37 W/m² | - |
| 1777465218 | 12.22° C | 97% | 1010.5 hPa | 0 mm | - | 25 W/m² | - |
| 1777461016 | 11.67° C | 97% | 1009.7 hPa | 0 mm | - | 9 W/m² | - |
| 1777460416 | 11.67° C | 97% | 1009.6 hPa | 0 mm | - | 5 W/m² | - |
| 1777459216 | 11.67° C | 97% | 1010 hPa | 0 mm | - | 1 W/m² | - |
| 1777458037 | 11.67° C | 96% | 1010.4 hPa | 0.76 mm | - | 0 W/m² | - |
| 1777450816 | 13.33° C | 90% | 1011.9 hPa | 2.79 mm | - | 0 W/m² | - |
| 1777448417 | 13.33° C | 81% | 1011.7 hPa | 0 mm | - | 0 W/m² | - |
| 1777445418 | 13.33° C | 84% | 1011.1 hPa | 0 mm | - | 0 W/m² | - |
| 1777444218 | 13.89° C | 83% | 1011.6 hPa | 0 mm | - | 0 W/m² | - |
| 1777437017 | 14.44° C | 83% | 1012.1 hPa | 0 mm | - | 0 W/m² | - |
| 1777436417 | 14.44° C | 83% | 1012 hPa | 0 mm | - | 0 W/m² | - |
| 1777432218 | 15.56° C | 80% | 1013.3 hPa | 0 mm | - | 0 W/m² | - |
| 1777431016 | 15.56° C | 79% | 1013.3 hPa | 0 mm | - | 0 W/m² | - |
| 1777422638 | 19.44° C | 68% | 1012.8 hPa | 0 mm | - | 2 W/m² | - |
| 1777420818 | 20° C | 65% | 1012.4 hPa | 0 mm | - | 17 W/m² | - |
* Rain latest hour (hover to see other rain measurements)
** Current wind speed in m/s (hover to see current wind gust speed)